sensor_id;sensor_type;location;lat;lon;timestamp;temperature;humidity
64689;DHT22;62504;46.070;14.492;2023-12-28T00:01:32;11.40;99.90
64689;DHT22;62504;46.070;14.492;2023-12-28T00:03:57;11.40;99.90
64689;DHT22;62504;46.070;14.492;2023-12-28T00:06:23;11.40;99.90
64689;DHT22;62504;46.070;14.492;2023-12-28T00:08:48;11.40;99.90
64689;DHT22;62504;46.070;14.492;2023-12-28T00:11:14;11.40;99.90
64689;DHT22;62504;46.070;14.492;2023-12-28T00:13:40;11.30;99.90
64689;DHT22;62504;46.070;14.492;2023-12-28T00:16:06;11.40;99.90
64689;DHT22;62504;46.070;14.492;2023-12-28T00:18:31;11.40;99.90
64689;DHT22;62504;46.070;14.492;2023-12-28T00:20:57;11.40;99.90
64689;DHT22;62504;46.070;14.492;2023-12-28T00:23:23;11.40;99.90
64689;DHT22;62504;46.070;14.492;2023-12-28T00:25:48;11.40;99.90
64689;DHT22;62504;46.070;14.492;2023-12-28T00:28:14;11.40;99.90
64689;DHT22;62504;46.070;14.492;2023-12-28T00:30:40;11.40;99.90
64689;DHT22;62504;46.070;14.492;2023-12-28T00:33:05;11.30;99.90
64689;DHT22;62504;46.070;14.492;2023-12-28T00:35:31;11.30;99.90
64689;DHT22;62504;46.070;14.492;2023-12-28T00:37:56;11.30;99.90
64689;DHT22;62504;46.070;14.492;2023-12-28T00:40:22;11.30;99.90
64689;DHT22;62504;46.070;14.492;2023-12-28T00:42:48;11.30;99.90
64689;DHT22;62504;46.070;14.492;2023-12-28T00:45:14;11.30;99.90
64689;DHT22;62504;46.070;14.492;2023-12-28T00:47:39;11.30;99.90
64689;DHT22;62504;46.070;14.492;2023-12-28T00:50:09;11.30;99.90
64689;DHT22;62504;46.070;14.492;2023-12-28T00:52:37;11.30;99.90
64689;DHT22;62504;46.070;14.492;2023-12-28T00:55:03;11.30;99.90
64689;DHT22;62504;46.070;14.492;2023-12-28T00:57:29;11.30;99.90
64689;DHT22;62504;46.070;14.492;2023-12-28T00:59:54;11.30;99.90
64689;DHT22;62504;46.070;14.492;2023-12-28T01:02:20;11.30;99.90
64689;DHT22;62504;46.070;14.492;2023-12-28T01:04:45;11.30;99.90
64689;DHT22;62504;46.070;14.492;2023-12-28T01:07:11;11.30;99.90
64689;DHT22;62504;46.070;14.492;2023-12-28T01:09:37;11.30;99.90
64689;DHT22;62504;46.070;14.492;2023-12-28T01:12:03;11.30;99.90
64689;DHT22;62504;46.070;14.492;2023-12-28T01:14:28;11.30;99.90
64689;DHT22;62504;46.070;14.492;2023-12-28T01:16:54;11.30;99.90
64689;DHT22;62504;46.070;14.492;2023-12-28T01:19:20;11.30;99.90
64689;DHT22;62504;46.070;14.492;2023-12-28T01:21:46;11.30;99.90
64689;DHT22;62504;46.070;14.492;2023-12-28T01:24:12;11.30;99.90
64689;DHT22;62504;46.070;14.492;2023-12-28T01:26:38;11.30;99.90
64689;DHT22;62504;46.070;14.492;2023-12-28T01:29:03;11.30;99.90
64689;DHT22;62504;46.070;14.492;2023-12-28T01:31:29;11.30;99.90
64689;DHT22;62504;46.070;14.492;2023-12-28T01:33:55;11.20;99.90
64689;DHT22;62504;46.070;14.492;2023-12-28T01:36:21;11.30;99.90
64689;DHT22;62504;46.070;14.492;2023-12-28T01:38:47;11.30;99.90
64689;DHT22;62504;46.070;14.492;2023-12-28T01:41:13;11.20;99.90
64689;DHT22;62504;46.070;14.492;2023-12-28T01:43:43;11.20;99.90
64689;DHT22;62504;46.070;14.492;2023-12-28T01:46:19;11.20;99.90
64689;DHT22;62504;46.070;14.492;2023-12-28T01:48:49;11.20;99.90
64689;DHT22;62504;46.070;14.492;2023-12-28T01:51:15;11.30;99.90
64689;DHT22;62504;46.070;14.492;2023-12-28T01:53:42;11.20;99.90
64689;DHT22;62504;46.070;14.492;2023-12-28T01:56:08;11.20;99.90
64689;DHT22;62504;46.070;14.492;2023-12-28T01:58:35;11.10;99.90
64689;DHT22;62504;46.070;14.492;2023-12-28T02:01:03;11.10;99.90
64689;DHT22;62504;46.070;14.492;2023-12-28T02:03:29;11.20;99.90
64689;DHT22;62504;46.070;14.492;2023-12-28T02:05:55;11.20;99.90
64689;DHT22;62504;46.070;14.492;2023-12-28T02:08:21;11.20;99.90
64689;DHT22;62504;46.070;14.492;2023-12-28T02:10:47;11.20;99.90
64689;DHT22;62504;46.070;14.492;2023-12-28T02:13:13;11.20;99.90
64689;DHT22;62504;46.070;14.492;2023-12-28T02:15:39;11.20;99.90
64689;DHT22;62504;46.070;14.492;2023-12-28T02:18:19;11.20;99.90
64689;DHT22;62504;46.070;14.492;2023-12-28T02:20:47;11.20;99.90
64689;DHT22;62504;46.070;14.492;2023-12-28T02:23:14;11.20;99.90
64689;DHT22;62504;46.070;14.492;2023-12-28T02:25:40;11.20;99.90
64689;DHT22;62504;46.070;14.492;2023-12-28T02:28:06;11.20;99.90
64689;DHT22;62504;46.070;14.492;2023-12-28T02:30:32;11.20;99.90
64689;DHT22;62504;46.070;14.492;2023-12-28T02:33:19;11.20;99.90
64689;DHT22;62504;46.070;14.492;2023-12-28T02:36:02;11.20;99.90
64689;DHT22;62504;46.070;14.492;2023-12-28T02:38:33;11.20;99.90
64689;DHT22;62504;46.070;14.492;2023-12-28T02:41:00;11.20;99.90
64689;DHT22;62504;46.070;14.492;2023-12-28T02:43:27;11.20;99.90
64689;DHT22;62504;46.070;14.492;2023-12-28T02:45:52;11.20;99.90
64689;DHT22;62504;46.070;14.492;2023-12-28T02:48:18;11.10;99.90
64689;DHT22;62504;46.070;14.492;2023-12-28T02:50:44;11.20;99.90
64689;DHT22;62504;46.070;14.492;2023-12-28T02:53:10;11.20;99.90
64689;DHT22;62504;46.070;14.492;2023-12-28T02:55:35;11.20;99.90
64689;DHT22;62504;46.070;14.492;2023-12-28T02:58:01;11.20;99.90
64689;DHT22;62504;46.070;14.492;2023-12-28T03:00:27;11.20;99.90
64689;DHT22;62504;46.070;14.492;2023-12-28T03:02:53;11.20;99.90
64689;DHT22;62504;46.070;14.492;2023-12-28T03:05:19;11.20;99.90
64689;DHT22;62504;46.070;14.492;2023-12-28T03:07:44;11.20;99.90
64689;DHT22;62504;46.070;14.492;2023-12-28T03:10:11;11.20;99.90
64689;DHT22;62504;46.070;14.492;2023-12-28T03:12:36;11.20;99.90
64689;DHT22;62504;46.070;14.492;2023-12-28T03:15:03;11.20;99.90
64689;DHT22;62504;46.070;14.492;2023-12-28T03:17:28;11.20;99.90
64689;DHT22;62504;46.070;14.492;2023-12-28T03:19:56;11.20;99.90
64689;DHT22;62504;46.070;14.492;2023-12-28T03:22:22;11.20;99.90
64689;DHT22;62504;46.070;14.492;2023-12-28T03:24:48;11.20;99.90
64689;DHT22;62504;46.070;14.492;2023-12-28T03:27:14;11.20;99.90
64689;DHT22;62504;46.070;14.492;2023-12-28T03:29:41;11.20;99.90
64689;DHT22;62504;46.070;14.492;2023-12-28T03:32:08;11.20;99.90
64689;DHT22;62504;46.070;14.492;2023-12-28T03:34:33;11.20;99.90
64689;DHT22;62504;46.070;14.492;2023-12-28T03:36:59;11.20;99.90
64689;DHT22;62504;46.070;14.492;2023-12-28T03:39:25;11.20;99.90
64689;DHT22;62504;46.070;14.492;2023-12-28T03:41:51;11.20;99.90
64689;DHT22;62504;46.070;14.492;2023-12-28T03:44:21;11.20;99.90
64689;DHT22;62504;46.070;14.492;2023-12-28T03:46:48;11.20;99.90
64689;DHT22;62504;46.070;14.492;2023-12-28T03:49:17;11.20;99.90
64689;DHT22;62504;46.070;14.492;2023-12-28T03:51:43;11.20;99.90
64689;DHT22;62504;46.070;14.492;2023-12-28T03:54:09;11.20;99.90
64689;DHT22;62504;46.070;14.492;2023-12-28T03:56:35;11.20;99.90
64689;DHT22;62504;46.070;14.492;2023-12-28T03:59:01;11.20;99.90
64689;DHT22;62504;46.070;14.492;2023-12-28T04:01:27;11.20;99.90
64689;DHT22;62504;46.070;14.492;2023-12-28T04:03:52;11.20;99.90
64689;DHT22;62504;46.070;14.492;2023-12-28T04:06:18;11.20;99.90
64689;DHT22;62504;46.070;14.492;2023-12-28T04:08:44;11.20;99.90
64689;DHT22;62504;46.070;14.492;2023-12-28T04:11:10;11.30;99.90
64689;DHT22;62504;46.070;14.492;2023-12-28T04:13:36;11.30;99.90
64689;DHT22;62504;46.070;14.492;2023-12-28T04:16:02;11.30;99.90
64689;DHT22;62504;46.070;14.492;2023-12-28T04:18:28;11.30;99.90
64689;DHT22;62504;46.070;14.492;2023-12-28T04:20:54;11.30;99.90
64689;DHT22;62504;46.070;14.492;2023-12-28T04:23:19;11.30;99.90
64689;DHT22;62504;46.070;14.492;2023-12-28T04:25:45;11.30;99.90
64689;DHT22;62504;46.070;14.492;2023-12-28T04:28:11;11.30;99.90
64689;DHT22;62504;46.070;14.492;2023-12-28T04:30:37;11.20;99.90
64689;DHT22;62504;46.070;14.492;2023-12-28T04:33:03;11.20;99.90
64689;DHT22;62504;46.070;14.492;2023-12-28T04:35:28;11.20;99.90
64689;DHT22;62504;46.070;14.492;2023-12-28T04:37:54;11.20;99.90
64689;DHT22;62504;46.070;14.492;2023-12-28T04:40:20;11.20;99.90
64689;DHT22;62504;46.070;14.492;2023-12-28T04:42:46;11.20;99.90
64689;DHT22;62504;46.070;14.492;2023-12-28T04:45:12;11.20;99.90
64689;DHT22;62504;46.070;14.492;2023-12-28T04:47:37;11.20;99.90
64689;DHT22;62504;46.070;14.492;2023-12-28T04:50:04;11.20;99.90
64689;DHT22;62504;46.070;14.492;2023-12-28T04:52:30;11.20;99.90
64689;DHT22;62504;46.070;14.492;2023-12-28T04:54:56;11.20;99.90
64689;DHT22;62504;46.070;14.492;2023-12-28T04:57:21;11.20;99.90
64689;DHT22;62504;46.070;14.492;2023-12-28T04:59:50;11.20;99.90
64689;DHT22;62504;46.070;14.492;2023-12-28T05:02:16;11.20;99.90
64689;DHT22;62504;46.070;14.492;2023-12-28T05:04:41;11.20;99.90
64689;DHT22;62504;46.070;14.492;2023-12-28T05:07:07;11.20;99.90
64689;DHT22;62504;46.070;14.492;2023-12-28T05:09:33;11.20;99.90
64689;DHT22;62504;46.070;14.492;2023-12-28T05:11:58;11.20;99.90
64689;DHT22;62504;46.070;14.492;2023-12-28T05:14:24;11.20;99.90
64689;DHT22;62504;46.070;14.492;2023-12-28T05:16:50;11.20;99.90
64689;DHT22;62504;46.070;14.492;2023-12-28T05:19:16;11.20;99.90
64689;DHT22;62504;46.070;14.492;2023-12-28T05:21:41;11.20;99.90
64689;DHT22;62504;46.070;14.492;2023-12-28T05:24:07;11.20;99.90
64689;DHT22;62504;46.070;14.492;2023-12-28T05:26:33;11.20;99.90
64689;DHT22;62504;46.070;14.492;2023-12-28T05:28:59;11.30;99.90
64689;DHT22;62504;46.070;14.492;2023-12-28T05:31:25;11.30;99.90
64689;DHT22;62504;46.070;14.492;2023-12-28T05:33:50;11.30;99.90
64689;DHT22;62504;46.070;14.492;2023-12-28T05:36:16;11.30;99.90
64689;DHT22;62504;46.070;14.492;2023-12-28T05:38:42;11.30;99.90
64689;DHT22;62504;46.070;14.492;2023-12-28T05:41:09;11.30;99.90
64689;DHT22;62504;46.070;14.492;2023-12-28T05:43:36;11.30;99.90
64689;DHT22;62504;46.070;14.492;2023-12-28T05:46:02;11.30;99.90
64689;DHT22;62504;46.070;14.492;2023-12-28T05:48:28;11.30;99.90
64689;DHT22;62504;46.070;14.492;2023-12-28T05:50:54;11.20;99.90
64689;DHT22;62504;46.070;14.492;2023-12-28T05:53:19;11.20;99.90
64689;DHT22;62504;46.070;14.492;2023-12-28T05:55:45;11.30;99.90
64689;DHT22;62504;46.070;14.492;2023-12-28T05:58:11;11.20;99.90
64689;DHT22;62504;46.070;14.492;2023-12-28T06:00:36;11.30;99.90
64689;DHT22;62504;46.070;14.492;2023-12-28T06:03:04;11.30;99.90
64689;DHT22;62504;46.070;14.492;2023-12-28T06:05:30;11.30;99.90
64689;DHT22;62504;46.070;14.492;2023-12-28T06:07:56;11.30;99.90
64689;DHT22;62504;46.070;14.492;2023-12-28T06:10:22;11.20;99.90
64689;DHT22;62504;46.070;14.492;2023-12-28T06:12:48;11.20;99.90
64689;DHT22;62504;46.070;14.492;2023-12-28T06:15:13;11.20;99.90
64689;DHT22;62504;46.070;14.492;2023-12-28T06:17:39;11.30;99.90
64689;DHT22;62504;46.070;14.492;2023-12-28T06:20:05;11.30;99.90
64689;DHT22;62504;46.070;14.492;2023-12-28T06:22:31;11.30;99.90
64689;DHT22;62504;46.070;14.492;2023-12-28T06:24:56;11.40;99.90
64689;DHT22;62504;46.070;14.492;2023-12-28T06:27:22;11.30;99.90
64689;DHT22;62504;46.070;14.492;2023-12-28T06:29:50;11.40;99.90
64689;DHT22;62504;46.070;14.492;2023-12-28T06:32:16;11.30;99.90
64689;DHT22;62504;46.070;14.492;2023-12-28T06:34:42;11.30;99.90
64689;DHT22;62504;46.070;14.492;2023-12-28T06:37:07;11.40;99.90
64689;DHT22;62504;46.070;14.492;2023-12-28T06:39:33;11.30;99.90
64689;DHT22;62504;46.070;14.492;2023-12-28T06:41:59;11.40;99.90
64689;DHT22;62504;46.070;14.492;2023-12-28T06:44:24;11.30;99.90
64689;DHT22;62504;46.070;14.492;2023-12-28T06:46:50;11.40;99.90
64689;DHT22;62504;46.070;14.492;2023-12-28T06:49:16;11.40;99.90
64689;DHT22;62504;46.070;14.492;2023-12-28T06:51:41;11.40;99.90
64689;DHT22;62504;46.070;14.492;2023-12-28T06:54:09;11.40;99.90
64689;DHT22;62504;46.070;14.492;2023-12-28T06:56:34;11.40;99.90
64689;DHT22;62504;46.070;14.492;2023-12-28T06:59:00;11.40;99.90
64689;DHT22;62504;46.070;14.492;2023-12-28T07:01:26;11.40;99.90
64689;DHT22;62504;46.070;14.492;2023-12-28T07:03:52;11.40;99.90
64689;DHT22;62504;46.070;14.492;2023-12-28T07:06:17;11.50;99.90
64689;DHT22;62504;46.070;14.492;2023-12-28T07:08:43;11.50;99.90
64689;DHT22;62504;46.070;14.492;2023-12-28T07:11:12;11.50;99.90
64689;DHT22;62504;46.070;14.492;2023-12-28T07:13:40;11.50;99.90
64689;DHT22;62504;46.070;14.492;2023-12-28T07:16:06;11.40;99.90
64689;DHT22;62504;46.070;14.492;2023-12-28T07:18:33;11.40;99.90
64689;DHT22;62504;46.070;14.492;2023-12-28T07:20:59;11.50;99.90
64689;DHT22;62504;46.070;14.492;2023-12-28T07:23:26;11.50;99.90
64689;DHT22;62504;46.070;14.492;2023-12-28T07:25:52;11.50;99.90
64689;DHT22;62504;46.070;14.492;2023-12-28T07:28:18;11.50;99.90
64689;DHT22;62504;46.070;14.492;2023-12-28T07:30:44;11.50;99.90
64689;DHT22;62504;46.070;14.492;2023-12-28T07:33:09;11.50;99.90
64689;DHT22;62504;46.070;14.492;2023-12-28T07:35:41;11.50;99.90
64689;DHT22;62504;46.070;14.492;2023-12-28T07:38:07;11.50;99.90
64689;DHT22;62504;46.070;14.492;2023-12-28T07:40:32;11.50;99.90
64689;DHT22;62504;46.070;14.492;2023-12-28T07:42:58;11.60;99.90
64689;DHT22;62504;46.070;14.492;2023-12-28T07:45:24;11.60;99.90
64689;DHT22;62504;46.070;14.492;2023-12-28T07:47:50;11.60;99.90
64689;DHT22;62504;46.070;14.492;2023-12-28T07:50:16;11.60;99.90
64689;DHT22;62504;46.070;14.492;2023-12-28T07:52:42;11.60;99.90
64689;DHT22;62504;46.070;14.492;2023-12-28T07:55:08;11.60;99.90
64689;DHT22;62504;46.070;14.492;2023-12-28T07:57:35;11.60;99.90
64689;DHT22;62504;46.070;14.492;2023-12-28T08:00:01;11.60;99.90
64689;DHT22;62504;46.070;14.492;2023-12-28T08:02:27;11.60;99.90
64689;DHT22;62504;46.070;14.492;2023-12-28T08:04:53;11.70;99.90
64689;DHT22;62504;46.070;14.492;2023-12-28T08:07:19;11.70;99.90
64689;DHT22;62504;46.070;14.492;2023-12-28T08:09:44;11.70;99.90
64689;DHT22;62504;46.070;14.492;2023-12-28T08:12:10;11.70;99.90
64689;DHT22;62504;46.070;14.492;2023-12-28T08:14:36;11.70;99.90
64689;DHT22;62504;46.070;14.492;2023-12-28T08:17:01;11.70;99.90
64689;DHT22;62504;46.070;14.492;2023-12-28T08:19:27;11.70;99.90
64689;DHT22;62504;46.070;14.492;2023-12-28T08:21:53;11.70;99.90
64689;DHT22;62504;46.070;14.492;2023-12-28T08:24:18;11.70;99.90
64689;DHT22;62504;46.070;14.492;2023-12-28T08:26:44;11.70;99.90
64689;DHT22;62504;46.070;14.492;2023-12-28T08:29:10;11.70;99.90
64689;DHT22;62504;46.070;14.492;2023-12-28T08:31:35;11.70;99.90
64689;DHT22;62504;46.070;14.492;2023-12-28T08:34:01;11.80;99.90
64689;DHT22;62504;46.070;14.492;2023-12-28T08:36:26;11.80;99.90
64689;DHT22;62504;46.070;14.492;2023-12-28T08:38:52;11.70;99.90
64689;DHT22;62504;46.070;14.492;2023-12-28T08:41:22;11.70;99.90
64689;DHT22;62504;46.070;14.492;2023-12-28T08:43:50;11.70;99.90
64689;DHT22;62504;46.070;14.492;2023-12-28T08:46:16;11.80;99.90
64689;DHT22;62504;46.070;14.492;2023-12-28T08:48:42;11.70;99.90
64689;DHT22;62504;46.070;14.492;2023-12-28T08:51:11;11.70;99.90
64689;DHT22;62504;46.070;14.492;2023-12-28T08:53:37;11.70;99.90
64689;DHT22;62504;46.070;14.492;2023-12-28T08:56:12;11.70;99.90
64689;DHT22;62504;46.070;14.492;2023-12-28T08:58:38;11.70;99.90
64689;DHT22;62504;46.070;14.492;2023-12-28T09:01:04;11.70;99.90
64689;DHT22;62504;46.070;14.492;2023-12-28T09:03:30;11.70;99.90
64689;DHT22;62504;46.070;14.492;2023-12-28T09:05:55;11.70;99.90
64689;DHT22;62504;46.070;14.492;2023-12-28T09:08:21;11.70;99.90
64689;DHT22;62504;46.070;14.492;2023-12-28T09:10:47;11.70;99.90
64689;DHT22;62504;46.070;14.492;2023-12-28T09:13:16;11.70;99.90
64689;DHT22;62504;46.070;14.492;2023-12-28T09:15:42;11.70;99.90
64689;DHT22;62504;46.070;14.492;2023-12-28T09:18:08;11.80;99.90
64689;DHT22;62504;46.070;14.492;2023-12-28T09:20:34;11.80;99.90
64689;DHT22;62504;46.070;14.492;2023-12-28T09:23:01;11.80;99.90
64689;DHT22;62504;46.070;14.492;2023-12-28T09:25:26;11.90;99.90
64689;DHT22;62504;46.070;14.492;2023-12-28T09:27:52;11.90;99.90
64689;DHT22;62504;46.070;14.492;2023-12-28T09:30:19;11.90;99.90
64689;DHT22;62504;46.070;14.492;2023-12-28T09:32:44;11.90;99.90
64689;DHT22;62504;46.070;14.492;2023-12-28T09:35:10;11.90;99.90
64689;DHT22;62504;46.070;14.492;2023-12-28T09:37:36;11.90;99.90
64689;DHT22;62504;46.070;14.492;2023-12-28T09:40:02;12.00;99.90
64689;DHT22;62504;46.070;14.492;2023-12-28T09:42:39;12.00;99.90
64689;DHT22;62504;46.070;14.492;2023-12-28T09:45:06;12.00;99.90
64689;DHT22;62504;46.070;14.492;2023-12-28T09:47:33;12.00;99.90
64689;DHT22;62504;46.070;14.492;2023-12-28T09:49:59;12.10;99.90
64689;DHT22;62504;46.070;14.492;2023-12-28T09:52:24;12.10;99.90
64689;DHT22;62504;46.070;14.492;2023-12-28T09:54:50;12.10;99.90
64689;DHT22;62504;46.070;14.492;2023-12-28T09:57:16;12.10;99.90
64689;DHT22;62504;46.070;14.492;2023-12-28T09:59:42;12.10;99.90
64689;DHT22;62504;46.070;14.492;2023-12-28T10:02:10;12.10;99.90
64689;DHT22;62504;46.070;14.492;2023-12-28T10:04:36;12.20;99.90
64689;DHT22;62504;46.070;14.492;2023-12-28T10:07:02;12.20;99.90
64689;DHT22;62504;46.070;14.492;2023-12-28T10:09:28;12.20;99.90
64689;DHT22;62504;46.070;14.492;2023-12-28T10:11:54;12.20;99.90
64689;DHT22;62504;46.070;14.492;2023-12-28T10:14:21;12.20;99.90
64689;DHT22;62504;46.070;14.492;2023-12-28T10:16:47;12.20;99.90
64689;DHT22;62504;46.070;14.492;2023-12-28T10:19:13;12.20;99.90
64689;DHT22;62504;46.070;14.492;2023-12-28T10:21:40;12.20;99.90
64689;DHT22;62504;46.070;14.492;2023-12-28T10:24:05;12.20;99.90
64689;DHT22;62504;46.070;14.492;2023-12-28T10:26:31;12.20;99.90
64689;DHT22;62504;46.070;14.492;2023-12-28T10:28:59;12.30;99.90
64689;DHT22;62504;46.070;14.492;2023-12-28T10:31:26;12.30;99.90
64689;DHT22;62504;46.070;14.492;2023-12-28T10:33:51;12.30;99.90
64689;DHT22;62504;46.070;14.492;2023-12-28T10:36:19;12.30;99.90
64689;DHT22;62504;46.070;14.492;2023-12-28T10:38:45;12.30;99.90
64689;DHT22;62504;46.070;14.492;2023-12-28T10:41:13;12.30;99.90
64689;DHT22;62504;46.070;14.492;2023-12-28T10:44:03;12.30;99.90
64689;DHT22;62504;46.070;14.492;2023-12-28T10:46:31;12.30;99.90
64689;DHT22;62504;46.070;14.492;2023-12-28T10:49:05;12.40;99.90
64689;DHT22;62504;46.070;14.492;2023-12-28T10:51:34;12.40;99.90
64689;DHT22;62504;46.070;14.492;2023-12-28T10:54:14;12.40;99.90
64689;DHT22;62504;46.070;14.492;2023-12-28T10:56:46;12.50;99.90
64689;DHT22;62504;46.070;14.492;2023-12-28T11:02:15;12.50;99.90
64689;DHT22;62504;46.070;14.492;2023-12-28T11:04:48;12.50;99.90
64689;DHT22;62504;46.070;14.492;2023-12-28T11:07:17;12.60;99.90
64689;DHT22;62504;46.070;14.492;2023-12-28T11:09:44;12.60;99.90
64689;DHT22;62504;46.070;14.492;2023-12-28T11:12:10;12.60;99.90
64689;DHT22;62504;46.070;14.492;2023-12-28T11:14:39;12.60;99.90
64689;DHT22;62504;46.070;14.492;2023-12-28T11:17:05;12.60;99.90
64689;DHT22;62504;46.070;14.492;2023-12-28T11:19:32;12.60;99.90
64689;DHT22;62504;46.070;14.492;2023-12-28T11:22:00;12.60;99.90
64689;DHT22;62504;46.070;14.492;2023-12-28T11:24:28;12.60;99.90
64689;DHT22;62504;46.070;14.492;2023-12-28T11:26:55;12.50;99.90
64689;DHT22;62504;46.070;14.492;2023-12-28T11:29:21;12.50;99.90
64689;DHT22;62504;46.070;14.492;2023-12-28T11:31:58;12.60;99.90
64689;DHT22;62504;46.070;14.492;2023-12-28T11:34:31;12.70;99.90
64689;DHT22;62504;46.070;14.492;2023-12-28T11:37:02;12.70;99.90
64689;DHT22;62504;46.070;14.492;2023-12-28T11:39:34;12.80;99.90
64689;DHT22;62504;46.070;14.492;2023-12-28T11:42:04;12.80;99.90
64689;DHT22;62504;46.070;14.492;2023-12-28T11:44:31;12.90;99.90
64689;DHT22;62504;46.070;14.492;2023-12-28T11:46:57;12.90;99.90
64689;DHT22;62504;46.070;14.492;2023-12-28T11:49:26;12.90;99.90
64689;DHT22;62504;46.070;14.492;2023-12-28T11:51:56;12.90;99.90
64689;DHT22;62504;46.070;14.492;2023-12-28T11:54:24;12.90;99.90
64689;DHT22;62504;46.070;14.492;2023-12-28T11:56:50;12.90;99.90
64689;DHT22;62504;46.070;14.492;2023-12-28T11:59:15;12.90;99.90
64689;DHT22;62504;46.070;14.492;2023-12-28T12:01:41;12.90;99.90
64689;DHT22;62504;46.070;14.492;2023-12-28T12:04:07;12.90;99.90
64689;DHT22;62504;46.070;14.492;2023-12-28T12:06:33;12.90;99.90
64689;DHT22;62504;46.070;14.492;2023-12-28T12:08:58;12.90;99.90
64689;DHT22;62504;46.070;14.492;2023-12-28T12:11:25;12.90;99.90
64689;DHT22;62504;46.070;14.492;2023-12-28T12:13:51;12.90;99.90
64689;DHT22;62504;46.070;14.492;2023-12-28T12:16:18;12.90;99.90
64689;DHT22;62504;46.070;14.492;2023-12-28T12:18:44;12.90;99.90
64689;DHT22;62504;46.070;14.492;2023-12-28T12:21:10;12.80;99.90
64689;DHT22;62504;46.070;14.492;2023-12-28T12:23:35;12.90;99.90
64689;DHT22;62504;46.070;14.492;2023-12-28T12:26:05;12.80;99.90
64689;DHT22;62504;46.070;14.492;2023-12-28T12:28:30;12.80;99.90
64689;DHT22;62504;46.070;14.492;2023-12-28T12:30:56;12.80;99.90
64689;DHT22;62504;46.070;14.492;2023-12-28T12:33:23;12.80;99.90
64689;DHT22;62504;46.070;14.492;2023-12-28T12:35:51;12.80;99.90
64689;DHT22;62504;46.070;14.492;2023-12-28T12:38:16;12.90;99.90
64689;DHT22;62504;46.070;14.492;2023-12-28T12:40:42;12.90;99.90
64689;DHT22;62504;46.070;14.492;2023-12-28T12:43:08;12.90;99.90
64689;DHT22;62504;46.070;14.492;2023-12-28T12:45:37;13.00;99.90
64689;DHT22;62504;46.070;14.492;2023-12-28T12:48:04;12.90;99.90
64689;DHT22;62504;46.070;14.492;2023-12-28T12:50:31;13.00;99.90
64689;DHT22;62504;46.070;14.492;2023-12-28T12:52:59;13.00;99.90
64689;DHT22;62504;46.070;14.492;2023-12-28T12:55:25;12.90;99.90
64689;DHT22;62504;46.070;14.492;2023-12-28T12:57:52;13.00;99.90
64689;DHT22;62504;46.070;14.492;2023-12-28T13:00:21;12.90;99.90
64689;DHT22;62504;46.070;14.492;2023-12-28T13:02:52;12.90;99.90
64689;DHT22;62504;46.070;14.492;2023-12-28T13:05:23;12.90;99.90
64689;DHT22;62504;46.070;14.492;2023-12-28T13:07:49;13.00;99.90
64689;DHT22;62504;46.070;14.492;2023-12-28T13:10:14;12.90;99.90
64689;DHT22;62504;46.070;14.492;2023-12-28T13:12:40;12.90;99.90
64689;DHT22;62504;46.070;14.492;2023-12-28T13:15:06;12.90;99.90
64689;DHT22;62504;46.070;14.492;2023-12-28T13:17:37;12.90;99.90
64689;DHT22;62504;46.070;14.492;2023-12-28T13:20:04;12.90;99.90
64689;DHT22;62504;46.070;14.492;2023-12-28T13:22:32;12.90;99.90
64689;DHT22;62504;46.070;14.492;2023-12-28T13:24:58;12.90;99.90
64689;DHT22;62504;46.070;14.492;2023-12-28T13:27:24;12.90;99.90
64689;DHT22;62504;46.070;14.492;2023-12-28T13:29:49;12.90;99.90
64689;DHT22;62504;46.070;14.492;2023-12-28T13:32:15;12.90;99.90
64689;DHT22;62504;46.070;14.492;2023-12-28T13:34:41;13.00;99.90
64689;DHT22;62504;46.070;14.492;2023-12-28T13:37:06;12.90;99.90
64689;DHT22;62504;46.070;14.492;2023-12-28T13:39:32;12.90;99.90
64689;DHT22;62504;46.070;14.492;2023-12-28T13:42:05;12.90;99.90
64689;DHT22;62504;46.070;14.492;2023-12-28T13:44:30;12.90;99.90
64689;DHT22;62504;46.070;14.492;2023-12-28T13:46:56;12.90;99.90
64689;DHT22;62504;46.070;14.492;2023-12-28T13:49:22;12.90;99.90
64689;DHT22;62504;46.070;14.492;2023-12-28T13:51:47;12.90;99.90
64689;DHT22;62504;46.070;14.492;2023-12-28T13:54:13;12.90;99.90
64689;DHT22;62504;46.070;14.492;2023-12-28T13:56:39;12.90;99.90
64689;DHT22;62504;46.070;14.492;2023-12-28T13:59:04;12.80;99.90
64689;DHT22;62504;46.070;14.492;2023-12-28T14:01:30;12.80;99.90
64689;DHT22;62504;46.070;14.492;2023-12-28T14:03:56;12.80;99.90
64689;DHT22;62504;46.070;14.492;2023-12-28T14:06:22;12.80;99.90
64689;DHT22;62504;46.070;14.492;2023-12-28T14:08:47;12.80;99.90
64689;DHT22;62504;46.070;14.492;2023-12-28T14:11:13;12.80;99.90
64689;DHT22;62504;46.070;14.492;2023-12-28T14:13:38;12.80;99.90
64689;DHT22;62504;46.070;14.492;2023-12-28T14:16:04;12.80;99.90
64689;DHT22;62504;46.070;14.492;2023-12-28T14:18:30;12.70;99.90
64689;DHT22;62504;46.070;14.492;2023-12-28T14:20:56;12.80;99.90
64689;DHT22;62504;46.070;14.492;2023-12-28T14:23:22;12.70;99.90
64689;DHT22;62504;46.070;14.492;2023-12-28T14:25:48;12.70;99.90
64689;DHT22;62504;46.070;14.492;2023-12-28T14:28:20;12.70;99.90
64689;DHT22;62504;46.070;14.492;2023-12-28T14:30:46;12.70;99.90
64689;DHT22;62504;46.070;14.492;2023-12-28T14:33:12;12.70;99.90
64689;DHT22;62504;46.070;14.492;2023-12-28T14:35:37;12.70;99.90
64689;DHT22;62504;46.070;14.492;2023-12-28T14:38:05;12.70;99.90
64689;DHT22;62504;46.070;14.492;2023-12-28T14:40:33;12.60;99.90
64689;DHT22;62504;46.070;14.492;2023-12-28T14:42:59;12.60;99.90
64689;DHT22;62504;46.070;14.492;2023-12-28T14:45:24;12.60;99.90
64689;DHT22;62504;46.070;14.492;2023-12-28T14:47:50;12.60;99.90
64689;DHT22;62504;46.070;14.492;2023-12-28T14:50:16;12.60;99.90
64689;DHT22;62504;46.070;14.492;2023-12-28T14:52:42;12.60;99.90
64689;DHT22;62504;46.070;14.492;2023-12-28T14:55:09;12.60;99.90
64689;DHT22;62504;46.070;14.492;2023-12-28T14:57:34;12.60;99.90
64689;DHT22;62504;46.070;14.492;2023-12-28T15:00:00;12.60;99.90
64689;DHT22;62504;46.070;14.492;2023-12-28T15:02:26;12.60;99.90
64689;DHT22;62504;46.070;14.492;2023-12-28T15:04:52;12.60;99.90
64689;DHT22;62504;46.070;14.492;2023-12-28T15:07:18;12.60;99.90
64689;DHT22;62504;46.070;14.492;2023-12-28T15:09:45;12.60;99.90
64689;DHT22;62504;46.070;14.492;2023-12-28T15:12:10;12.60;99.90
64689;DHT22;62504;46.070;14.492;2023-12-28T15:14:36;12.60;99.90